Time;durP1;ratioP1;P1;durP2;ratioP2;P2;SDS_P1;SDS_P2;PMS_P1;PMS_P2;Temp;Humidity;BMP_temperature;BMP_pressure;BME280_temperature;BME280_humidity;BME280_pressure;Samples;Min_cycle;Max_cycle;Signal;HPM_P1;HPM_P2
2022/04/06 00:00:35;;;;;;;;;;;9.10;93.00;;;;;;5058982;28;19922;-67
2022/04/06 00:03:01;;;;;;;;;;;9.10;93.00;;;;;;5057270;28;20419;-67
2022/04/06 00:05:26;;;;;;;;;;;9.00;93.20;;;;;;5058082;28;19927;-67
2022/04/06 00:07:52;;;;;;;;;;;9.10;93.20;;;;;;5054971;28;20054;-67
2022/04/06 00:10:17;;;;;;;;;;;9.00;92.90;;;;;;5059947;28;19912;-67
2022/04/06 00:12:43;;;;;;;;;;;9.00;93.30;;;;;;5062108;28;19951;-67
2022/04/06 00:15:09;;;;;;;;;;;9.00;93.30;;;;;;5052848;28;19912;-67
2022/04/06 00:17:35;;;;;;;;;;;9.00;93.30;;;;;;5046537;28;19908;-67
2022/04/06 00:20:01;;;;;;;;;;;9.00;92.80;;;;;;5062061;28;19916;-67
2022/04/06 00:22:26;;;;;;;;;;;9.00;92.80;;;;;;5064274;28;19919;-67
2022/04/06 00:24:51;;;;;;;;;;;9.00;93.00;;;;;;5050955;28;19916;-67
2022/04/06 00:27:17;;;;;;;;;;;9.00;92.80;;;;;;5055962;28;19947;-67
2022/04/06 00:29:43;;;;;;;;;;;9.00;92.80;;;;;;5061556;28;19913;-67
2022/04/06 00:32:08;;;;;;;;;;;9.00;92.80;;;;;;5066380;28;19958;-67
2022/04/06 00:37:18;;;;;;;;;;;9.00;92.80;;;;;;5057756;28;19920;-67
2022/04/06 00:39:43;;;;;;;;;;;9.00;93.00;;;;;;5062116;28;19916;-67
2022/04/06 00:42:09;;;;;;;;;;;9.00;92.90;;;;;;5051310;28;19977;-67
2022/04/06 00:44:35;;;;;;;;;;;9.00;92.80;;;;;;5059690;28;19909;-67
2022/04/06 00:47:01;;;;;;;;;;;9.00;92.80;;;;;;5059895;28;19931;-67
2022/04/06 00:49:26;;;;;;;;;;;8.90;92.90;;;;;;5051232;28;20620;-67
2022/04/06 00:51:52;;;;;;;;;;;9.00;93.00;;;;;;5053430;28;19932;-67
2022/04/06 00:54:19;;;;;;;;;;;8.90;92.70;;;;;;5058945;28;19913;-67
2022/04/06 00:56:46;;;;;;;;;;;8.90;92.90;;;;;;5052651;28;19913;-67
2022/04/06 00:59:11;;;;;;;;;;;9.00;92.90;;;;;;5046786;28;19912;-67
2022/04/06 01:01:37;;;;;;;;;;;8.90;92.80;;;;;;5058917;28;19917;-67
2022/04/06 01:04:03;;;;;;;;;;;8.90;92.90;;;;;;5057630;28;19912;-67
2022/04/06 01:06:28;;;;;;;;;;;8.90;92.80;;;;;;5048484;28;19952;-67
2022/04/06 01:08:54;;;;;;;;;;;8.90;93.20;;;;;;5037091;28;19912;-67
2022/04/06 01:11:20;;;;;;;;;;;8.90;92.90;;;;;;5058576;28;19944;-67
2022/04/06 01:13:45;;;;;;;;;;;8.90;92.80;;;;;;5050045;28;19995;-67
2022/04/06 01:16:11;;;;;;;;;;;8.90;92.70;;;;;;5052142;28;19944;-67
2022/04/06 01:18:36;;;;;;;;;;;8.90;92.70;;;;;;5057827;28;19955;-67
2022/04/06 01:21:02;;;;;;;;;;;8.90;92.80;;;;;;5060624;28;20272;-67
2022/04/06 01:23:28;;;;;;;;;;;8.90;92.80;;;;;;5053261;28;19912;-67
2022/04/06 01:25:53;;;;;;;;;;;8.90;92.80;;;;;;5055200;28;19916;-67
2022/04/06 01:28:19;;;;;;;;;;;8.90;92.80;;;;;;5059663;28;19908;-67
2022/04/06 01:30:44;;;;;;;;;;;8.90;92.80;;;;;;5056039;28;19915;-67
2022/04/06 01:33:10;;;;;;;;;;;8.90;92.80;;;;;;5048855;28;19913;-67
2022/04/06 01:35:38;;;;;;;;;;;8.80;92.70;;;;;;5063163;28;19970;-67
2022/04/06 01:38:06;;;;;;;;;;;8.80;92.80;;;;;;5057090;28;20003;-67
2022/04/06 01:40:33;;;;;;;;;;;8.90;92.90;;;;;;5037442;28;19924;-67
2022/04/06 01:42:58;;;;;;;;;;;8.80;93.30;;;;;;5051886;28;20338;-67
2022/04/06 01:45:24;;;;;;;;;;;8.80;93.00;;;;;;5060166;28;19952;-67
2022/04/06 01:47:49;;;;;;;;;;;8.80;92.70;;;;;;5054186;28;19917;-67
2022/04/06 01:52:59;;;;;;;;;;;8.80;92.90;;;;;;5056210;28;20316;-67
2022/04/06 01:55:25;;;;;;;;;;;8.80;92.90;;;;;;5061974;28;19912;-67
2022/04/06 01:57:50;;;;;;;;;;;8.80;93.30;;;;;;5050779;28;19936;-67
2022/04/06 02:00:17;;;;;;;;;;;8.80;92.90;;;;;;5053865;28;19916;-67
2022/04/06 02:02:43;;;;;;;;;;;8.80;92.90;;;;;;5057764;28;19936;-67
2022/04/06 02:05:09;;;;;;;;;;;8.80;92.90;;;;;;5050390;28;19913;-67
2022/04/06 02:07:35;;;;;;;;;;;8.80;92.80;;;;;;5053100;28;19908;-67
2022/04/06 02:10:02;;;;;;;;;;;8.80;92.80;;;;;;5057185;28;20325;-67
2022/04/06 02:12:29;;;;;;;;;;;8.80;93.00;;;;;;5051263;28;20004;-67
2022/04/06 02:14:55;;;;;;;;;;;8.80;92.90;;;;;;5049114;28;19909;-67
2022/04/06 02:17:21;;;;;;;;;;;8.80;92.90;;;;;;5035143;28;20027;-67
2022/04/06 02:19:46;;;;;;;;;;;8.80;92.90;;;;;;5057423;28;19928;-67
2022/04/06 02:22:12;;;;;;;;;;;8.70;92.90;;;;;;5052706;28;20023;-67
2022/04/06 02:24:38;;;;;;;;;;;8.70;92.90;;;;;;5052036;28;20540;-67
2022/04/06 02:27:07;;;;;;;;;;;8.70;92.80;;;;;;5057636;28;19924;-67
2022/04/06 02:29:33;;;;;;;;;;;8.80;92.90;;;;;;5053341;28;20049;-67
2022/04/06 02:31:58;;;;;;;;;;;8.70;92.80;;;;;;5048055;28;20392;-67
2022/04/06 02:34:24;;;;;;;;;;;8.70;92.90;;;;;;5053321;28;20238;-67
2022/04/06 02:36:49;;;;;;;;;;;8.70;92.80;;;;;;5058082;28;19908;-67
2022/04/06 02:39:15;;;;;;;;;;;8.70;92.90;;;;;;5055275;28;20439;-67
2022/04/06 02:41:40;;;;;;;;;;;8.70;93.00;;;;;;5051614;28;19913;-67
2022/04/06 02:44:06;;;;;;;;;;;8.70;92.90;;;;;;5054270;28;19932;-67
2022/04/06 02:46:31;;;;;;;;;;;8.70;93.20;;;;;;5054256;28;19913;-67
2022/04/06 02:48:58;;;;;;;;;;;8.70;92.90;;;;;;5052772;28;20369;-67
2022/04/06 02:51:23;;;;;;;;;;;8.70;92.90;;;;;;5056194;28;20494;-67
2022/04/06 02:53:49;;;;;;;;;;;8.70;93.00;;;;;;5061230;28;19912;-67
2022/04/06 02:56:15;;;;;;;;;;;8.70;92.90;;;;;;5050418;28;20395;-67
2022/04/06 02:58:41;;;;;;;;;;;8.70;92.90;;;;;;5058883;28;20353;-67
2022/04/06 03:01:06;;;;;;;;;;;8.70;93.10;;;;;;5057900;28;19916;-67
2022/04/06 03:03:32;;;;;;;;;;;8.70;93.00;;;;;;5052764;28;19924;-67
2022/04/06 03:05:57;;;;;;;;;;;8.70;92.90;;;;;;5053077;28;19913;-67
2022/04/06 03:08:23;;;;;;;;;;;8.70;92.80;;;;;;5060337;28;19958;-67
2022/04/06 03:10:49;;;;;;;;;;;8.70;92.90;;;;;;5050030;28;20368;-67
2022/04/06 03:13:14;;;;;;;;;;;8.70;92.80;;;;;;5057167;28;20338;-67
2022/04/06 03:15:40;;;;;;;;;;;8.70;92.90;;;;;;5051360;28;19951;-67
2022/04/06 03:18:05;;;;;;;;;;;8.70;92.90;;;;;;5056984;28;19920;-67
2022/04/06 03:20:31;;;;;;;;;;;8.70;92.80;;;;;;5056983;28;19916;-67
2022/04/06 03:22:56;;;;;;;;;;;8.60;92.90;;;;;;5054769;28;20003;-67
2022/04/06 03:25:22;;;;;;;;;;;8.70;92.90;;;;;;5053260;28;19927;-67
2022/04/06 03:27:47;;;;;;;;;;;8.60;93.10;;;;;;5058453;28;20382;-67
2022/04/06 03:30:13;;;;;;;;;;;8.70;93.10;;;;;;5056610;28;19919;-67
2022/04/06 03:32:39;;;;;;;;;;;8.60;92.90;;;;;;5052514;28;19948;-67
2022/04/06 03:35:05;;;;;;;;;;;8.60;92.90;;;;;;5047136;28;19919;-67
2022/04/06 03:37:31;;;;;;;;;;;8.60;92.80;;;;;;5058747;28;19912;-67
2022/04/06 03:39:56;;;;;;;;;;;8.60;93.00;;;;;;5056793;28;20674;-67
2022/04/06 03:42:22;;;;;;;;;;;8.60;92.90;;;;;;5055588;28;20003;-67
2022/04/06 03:44:47;;;;;;;;;;;8.60;92.90;;;;;;5056188;28;19916;-67
2022/04/06 03:47:13;;;;;;;;;;;8.60;92.80;;;;;;5052226;28;19935;-67
2022/04/06 03:49:38;;;;;;;;;;;8.60;92.90;;;;;;5055199;28;19969;-67
2022/04/06 03:52:06;;;;;;;;;;;8.60;92.90;;;;;;5055271;28;21245;-67
2022/04/06 03:54:31;;;;;;;;;;;8.60;92.80;;;;;;5051769;28;19991;-67
2022/04/06 03:56:57;;;;;;;;;;;8.60;93.00;;;;;;5054907;28;19912;-67
2022/04/06 03:59:22;;;;;;;;;;;8.60;92.90;;;;;;5054666;28;19913;-67
2022/04/06 04:01:48;;;;;;;;;;;8.60;93.00;;;;;;5057970;28;19916;-67
2022/04/06 04:04:14;;;;;;;;;;;8.60;92.90;;;;;;5051991;28;19962;-67
2022/04/06 04:06:39;;;;;;;;;;;8.60;93.10;;;;;;5050912;28;19909;-67
2022/04/06 04:09:05;;;;;;;;;;;8.60;93.00;;;;;;5061784;28;20311;-67
2022/04/06 04:11:30;;;;;;;;;;;8.60;92.90;;;;;;5056249;28;19908;-67
2022/04/06 04:13:56;;;;;;;;;;;8.60;92.90;;;;;;5045211;28;20003;-67
2022/04/06 04:16:21;;;;;;;;;;;8.60;92.90;;;;;;5053708;28;20408;-67
2022/04/06 04:18:47;;;;;;;;;;;8.60;92.90;;;;;;5059669;28;19912;-67
2022/04/06 04:21:32;;;;;;;;;;;8.50;92.90;;;;;;5054139;28;19921;-67
2022/04/06 04:23:58;;;;;;;;;;;8.50;92.90;;;;;;5055876;28;19916;-67
2022/04/06 04:26:23;;;;;;;;;;;8.50;92.90;;;;;;5055651;28;19966;-67
2022/04/06 04:28:49;;;;;;;;;;;8.50;92.90;;;;;;5052265;28;19909;-67
2022/04/06 04:31:14;;;;;;;;;;;8.50;92.80;;;;;;5050956;28;19913;-67
2022/04/06 04:33:41;;;;;;;;;;;8.50;92.90;;;;;;5051556;28;19920;-67
2022/04/06 04:36:06;;;;;;;;;;;8.50;93.10;;;;;;5057734;28;19948;-67
2022/04/06 04:38:32;;;;;;;;;;;8.50;93.00;;;;;;5054754;28;20651;-67
2022/04/06 04:40:57;;;;;;;;;;;8.50;93.00;;;;;;5055693;28;20460;-67
2022/04/06 04:43:23;;;;;;;;;;;8.50;93.20;;;;;;5053497;28;19966;-67
2022/04/06 04:45:48;;;;;;;;;;;8.50;93.10;;;;;;5056952;28;19923;-67
2022/04/06 04:48:14;;;;;;;;;;;8.50;93.30;;;;;;5053841;28;19966;-67
2022/04/06 04:50:39;;;;;;;;;;;8.50;93.20;;;;;;5055333;28;19909;-67
2022/04/06 04:53:05;;;;;;;;;;;8.50;93.20;;;;;;5052849;28;20007;-67
2022/04/06 04:55:32;;;;;;;;;;;8.50;93.00;;;;;;5052350;28;19916;-67
2022/04/06 04:57:57;;;;;;;;;;;8.40;93.20;;;;;;5055204;28;19923;-67
2022/04/06 05:00:23;;;;;;;;;;;8.40;93.40;;;;;;5054938;28;19917;-67
2022/04/06 05:02:48;;;;;;;;;;;8.40;93.50;;;;;;5050721;28;19948;-67
2022/04/06 05:05:14;;;;;;;;;;;8.40;93.30;;;;;;5059040;28;19909;-67
2022/04/06 05:07:39;;;;;;;;;;;8.40;93.30;;;;;;5056784;28;20019;-67
2022/04/06 05:10:05;;;;;;;;;;;8.40;93.50;;;;;;5056438;28;19908;-67
2022/04/06 05:12:31;;;;;;;;;;;8.40;93.60;;;;;;5051296;28;20040;-67
2022/04/06 05:14:59;;;;;;;;;;;8.40;93.50;;;;;;5048803;28;20687;-67
2022/04/06 05:17:24;;;;;;;;;;;8.40;93.40;;;;;;5054513;28;19948;-67
2022/04/06 05:19:50;;;;;;;;;;;8.40;93.30;;;;;;5057485;28;19959;-67
2022/04/06 05:22:15;;;;;;;;;;;8.40;93.20;;;;;;5057492;28;19920;-67
2022/04/06 05:24:41;;;;;;;;;;;8.40;93.10;;;;;;5054669;28;19947;-67
2022/04/06 05:27:06;;;;;;;;;;;8.40;93.00;;;;;;5054681;28;19919;-67
2022/04/06 05:29:32;;;;;;;;;;;8.40;93.10;;;;;;5055856;28;20317;-67
2022/04/06 05:31:57;;;;;;;;;;;8.40;93.00;;;;;;5049497;28;19913;-67
2022/04/06 05:34:23;;;;;;;;;;;8.40;93.00;;;;;;5053070;28;19920;-67
2022/04/06 05:36:48;;;;;;;;;;;8.40;92.90;;;;;;5034873;28;19999;-67
2022/04/06 05:39:14;;;;;;;;;;;8.40;92.80;;;;;;5058408;28;20621;-67
2022/04/06 05:41:39;;;;;;;;;;;8.40;92.80;;;;;;5050869;28;19959;-67
2022/04/06 05:44:05;;;;;;;;;;;8.40;92.80;;;;;;5052988;28;19972;-67
2022/04/06 05:46:30;;;;;;;;;;;8.40;92.80;;;;;;5053161;28;20294;-67
2022/04/06 05:48:56;;;;;;;;;;;8.40;92.80;;;;;;5052589;28;19956;-67
2022/04/06 05:51:21;;;;;;;;;;;8.40;92.80;;;;;;5051569;28;19919;-67
2022/04/06 05:53:47;;;;;;;;;;;8.40;92.70;;;;;;5047214;28;20018;-67
2022/04/06 05:56:13;;;;;;;;;;;8.40;92.80;;;;;;5050922;28;19919;-67
2022/04/06 05:58:38;;;;;;;;;;;8.40;92.60;;;;;;5055254;28;19912;-67
2022/04/06 06:01:04;;;;;;;;;;;8.40;92.60;;;;;;5054177;28;19970;-67
2022/04/06 06:03:29;;;;;;;;;;;8.40;92.60;;;;;;5051317;28;19913;-67
2022/04/06 06:05:55;;;;;;;;;;;8.40;92.50;;;;;;5053954;28;19916;-67
2022/04/06 06:08:20;;;;;;;;;;;8.40;92.50;;;;;;5054267;28;20292;-67
2022/04/06 06:10:46;;;;;;;;;;;8.40;92.50;;;;;;5051946;28;19912;-67
2022/04/06 06:13:12;;;;;;;;;;;8.40;92.50;;;;;;5052902;28;19921;-67
2022/04/06 06:15:37;;;;;;;;;;;8.40;92.40;;;;;;5035664;28;19951;-67
2022/04/06 06:18:03;;;;;;;;;;;8.40;92.40;;;;;;5035245;28;19913;-67
2022/04/06 06:20:29;;;;;;;;;;;8.40;92.30;;;;;;5055185;28;19935;-67
2022/04/06 06:22:54;;;;;;;;;;;8.40;92.30;;;;;;5056042;28;19920;-67
2022/04/06 06:25:20;;;;;;;;;;;8.40;92.30;;;;;;5051691;28;20275;-67
2022/04/06 06:27:46;;;;;;;;;;;8.40;92.30;;;;;;5057988;28;20004;-67
2022/04/06 06:30:13;;;;;;;;;;;8.40;92.30;;;;;;5060289;28;19963;-67
2022/04/06 06:32:39;;;;;;;;;;;8.40;92.30;;;;;;5051299;28;20020;-67
2022/04/06 06:35:05;;;;;;;;;;;8.40;92.40;;;;;;5052730;28;20021;-67
2022/04/06 06:37:31;;;;;;;;;;;8.40;92.40;;;;;;5060861;28;20253;-67
2022/04/06 06:39:56;;;;;;;;;;;8.40;92.30;;;;;;5043033;28;19955;-67
2022/04/06 06:42:22;;;;;;;;;;;8.50;92.40;;;;;;5057790;28;19923;-67
2022/04/06 06:44:47;;;;;;;;;;;8.50;92.40;;;;;;5052784;28;20074;-67
2022/04/06 06:47:13;;;;;;;;;;;8.50;92.50;;;;;;5057493;28;20463;-67
2022/04/06 06:49:45;;;;;;;;;;;8.50;92.50;;;;;;5059392;28;19913;-67
2022/04/06 06:52:11;;;;;;;;;;;8.50;92.50;;;;;;5054536;28;20309;-67
2022/04/06 06:54:37;;;;;;;;;;;8.50;92.40;;;;;;5054468;28;19913;-67
2022/04/06 06:57:02;;;;;;;;;;;8.50;92.50;;;;;;5047834;28;19917;-67
2022/04/06 06:59:28;;;;;;;;;;;8.50;92.50;;;;;;5054330;28;19939;-67
2022/04/06 07:01:54;;;;;;;;;;;8.50;92.50;;;;;;5053685;28;19974;-67
2022/04/06 07:04:22;;;;;;;;;;;8.50;92.60;;;;;;5059603;28;19969;-67
2022/04/06 07:06:48;;;;;;;;;;;8.50;92.50;;;;;;5053737;28;19913;-67
2022/04/06 07:09:13;;;;;;;;;;;8.60;92.40;;;;;;5058179;28;20356;-67
2022/04/06 07:11:39;;;;;;;;;;;8.50;92.40;;;;;;5056692;28;19916;-67
2022/04/06 07:14:04;;;;;;;;;;;8.50;92.50;;;;;;5056795;28;20498;-67
2022/04/06 07:16:30;;;;;;;;;;;8.50;92.40;;;;;;5045810;28;19955;-67
2022/04/06 07:18:55;;;;;;;;;;;8.50;92.50;;;;;;5055536;28;20594;-67
2022/04/06 07:21:21;;;;;;;;;;;8.60;92.70;;;;;;5058890;28;19916;-67
2022/04/06 07:23:47;;;;;;;;;;;8.60;92.50;;;;;;5057407;28;19920;-67
2022/04/06 07:26:16;;;;;;;;;;;8.60;92.50;;;;;;5052033;28;20003;-67
2022/04/06 07:28:45;;;;;;;;;;;8.60;92.50;;;;;;5057229;28;20456;-67
2022/04/06 07:31:11;;;;;;;;;;;8.60;92.50;;;;;;5057175;28;19909;-67
2022/04/06 07:33:37;;;;;;;;;;;8.60;92.50;;;;;;5052310;28;19912;-67
2022/04/06 07:36:04;;;;;;;;;;;8.60;92.60;;;;;;5052277;28;19919;-67
2022/04/06 07:38:29;;;;;;;;;;;8.60;92.60;;;;;;5058684;28;19967;-67
2022/04/06 07:40:55;;;;;;;;;;;8.60;92.60;;;;;;5062242;28;19940;-67
2022/04/06 07:43:20;;;;;;;;;;;8.60;92.60;;;;;;5054909;28;19991;-67
2022/04/06 07:45:46;;;;;;;;;;;8.60;92.50;;;;;;5054927;28;19935;-67
2022/04/06 07:48:11;;;;;;;;;;;8.60;92.50;;;;;;5057987;28;19927;-67
2022/04/06 07:50:37;;;;;;;;;;;8.60;92.50;;;;;;5051511;28;19913;-67
2022/04/06 07:53:02;;;;;;;;;;;8.60;92.50;;;;;;5054008;28;19999;-67
2022/04/06 07:55:29;;;;;;;;;;;8.60;92.60;;;;;;5057001;28;19943;-67
2022/04/06 07:57:54;;;;;;;;;;;8.60;92.60;;;;;;5047417;28;20302;-67
2022/04/06 08:00:20;;;;;;;;;;;8.60;92.60;;;;;;5054785;28;19917;-67
2022/04/06 08:02:46;;;;;;;;;;;8.70;92.70;;;;;;5056155;28;19912;-67
2022/04/06 08:05:12;;;;;;;;;;;8.70;92.50;;;;;;5059627;28;20309;-67
2022/04/06 08:07:43;;;;;;;;;;;8.70;92.60;;;;;;5052851;28;19912;-67
2022/04/06 08:10:10;;;;;;;;;;;8.70;92.60;;;;;;5056800;28;19912;-67
2022/04/06 08:12:36;;;;;;;;;;;8.70;92.60;;;;;;5058254;28;20300;-67
2022/04/06 08:15:02;;;;;;;;;;;8.70;92.60;;;;;;5053545;28;19917;-67
2022/04/06 08:17:31;;;;;;;;;;;8.70;92.60;;;;;;5052034;28;19912;-67
2022/04/06 08:19:56;;;;;;;;;;;8.80;92.70;;;;;;5056149;28;19970;-67
2022/04/06 08:22:22;;;;;;;;;;;8.80;92.60;;;;;;5046513;28;19924;-67
2022/04/06 08:24:48;;;;;;;;;;;8.80;92.50;;;;;;5057805;28;19948;-67
2022/04/06 08:27:13;;;;;;;;;;;8.80;92.60;;;;;;5042208;28;19916;-67
2022/04/06 08:29:39;;;;;;;;;;;8.80;92.60;;;;;;5059732;28;19998;-67
2022/04/06 08:32:05;;;;;;;;;;;8.80;92.60;;;;;;5051851;28;19917;-67
2022/04/06 08:34:30;;;;;;;;;;;8.80;92.50;;;;;;5042808;28;19944;-67
2022/04/06 08:36:56;;;;;;;;;;;8.90;92.60;;;;;;5037804;28;20047;-67
2022/04/06 08:39:21;;;;;;;;;;;8.90;92.50;;;;;;5062284;28;20395;-67
2022/04/06 08:41:47;;;;;;;;;;;8.90;92.50;;;;;;5054214;28;19920;-67
2022/04/06 08:44:12;;;;;;;;;;;8.90;92.50;;;;;;5050505;28;20008;-67
2022/04/06 08:46:40;;;;;;;;;;;8.90;92.50;;;;;;5046381;28;19913;-67
2022/04/06 08:49:05;;;;;;;;;;;8.90;92.50;;;;;;5053365;28;20031;-67
2022/04/06 08:51:34;;;;;;;;;;;8.90;92.50;;;;;;5051943;28;20000;-67
2022/04/06 08:54:00;;;;;;;;;;;9.00;92.40;;;;;;5055584;28;19917;-67
2022/04/06 08:56:25;;;;;;;;;;;8.90;92.40;;;;;;5059548;28;19909;-67
2022/04/06 08:58:51;;;;;;;;;;;9.00;92.40;;;;;;5056310;28;19984;-67
2022/04/06 09:01:18;;;;;;;;;;;9.00;92.40;;;;;;5051541;28;19924;-67
2022/04/06 09:03:44;;;;;;;;;;;9.00;92.50;;;;;;5057185;28;19913;-67
2022/04/06 09:06:12;;;;;;;;;;;9.00;92.40;;;;;;5055207;28;20396;-67
2022/04/06 09:08:39;;;;;;;;;;;9.00;92.40;;;;;;5053579;28;19919;-67
2022/04/06 09:11:10;;;;;;;;;;;9.00;92.40;;;;;;5056034;28;20003;-67
2022/04/06 09:13:35;;;;;;;;;;;9.10;92.40;;;;;;5039533;28;19915;-67
2022/04/06 09:16:01;;;;;;;;;;;9.10;92.20;;;;;;5053745;28;19921;-67
2022/04/06 09:18:38;;;;;;;;;;;9.20;92.20;;;;;;5054437;28;19912;-67
2022/04/06 09:21:04;;;;;;;;;;;9.20;92.10;;;;;;5037715;28;20354;-67
2022/04/06 09:23:30;;;;;;;;;;;9.30;92.00;;;;;;5059609;28;19909;-67
2022/04/06 09:26:00;;;;;;;;;;;9.30;91.90;;;;;;5052167;28;19977;-67
2022/04/06 09:28:26;;;;;;;;;;;9.40;91.90;;;;;;5056711;28;20388;-67
2022/04/06 09:30:52;;;;;;;;;;;9.40;91.80;;;;;;5057718;28;19917;-67
2022/04/06 09:33:20;;;;;;;;;;;9.50;91.70;;;;;;5048019;28;19958;-67
2022/04/06 09:35:46;;;;;;;;;;;9.50;91.60;;;;;;5054715;28;19913;-67
2022/04/06 09:38:25;;;;;;;;;;;9.50;91.60;;;;;;5058621;28;20019;-67
2022/04/06 09:41:01;;;;;;;;;;;9.60;91.50;;;;;;5057554;28;19920;-67
2022/04/06 09:43:28;;;;;;;;;;;9.60;91.50;;;;;;5045855;28;20396;-67
2022/04/06 09:48:51;;;;;;;;;;;9.60;91.40;;;;;;5057248;28;19927;-67
2022/04/06 09:51:17;;;;;;;;;;;9.60;91.40;;;;;;5051163;28;19912;-67
2022/04/06 09:53:44;;;;;;;;;;;9.60;91.30;;;;;;5044806;28;20584;-67
2022/04/06 09:56:09;;;;;;;;;;;9.60;91.30;;;;;;5058565;28;20003;-67
2022/04/06 09:58:35;;;;;;;;;;;9.70;91.40;;;;;;5056939;28;20607;-67
2022/04/06 10:01:00;;;;;;;;;;;9.60;91.50;;;;;;5053043;28;20395;-67
2022/04/06 10:03:26;;;;;;;;;;;9.60;91.40;;;;;;5058428;28;19920;-67
2022/04/06 10:05:52;;;;;;;;;;;9.60;91.40;;;;;;5061617;28;19927;-67
2022/04/06 10:08:18;;;;;;;;;;;9.60;91.40;;;;;;5049025;28;19909;-67
2022/04/06 10:10:45;;;;;;;;;;;9.60;91.40;;;;;;5053602;28;20761;-67
2022/04/06 10:13:10;;;;;;;;;;;9.60;91.40;;;;;;5058181;28;19908;-67
2022/04/06 10:15:37;;;;;;;;;;;9.60;91.40;;;;;;5034523;28;20030;-67
2022/04/06 10:18:03;;;;;;;;;;;9.70;91.40;;;;;;5045500;28;20429;-67
2022/04/06 10:20:33;;;;;;;;;;;9.70;91.40;;;;;;5058548;28;19944;-67
2022/04/06 10:23:04;;;;;;;;;;;9.60;91.40;;;;;;5061330;28;19913;-67
2022/04/06 10:25:35;;;;;;;;;;;9.60;91.40;;;;;;5052902;28;19909;-67
2022/04/06 10:28:04;;;;;;;;;;;9.60;91.40;;;;;;5057072;28;19916;-67
2022/04/06 10:30:29;;;;;;;;;;;9.60;91.40;;;;;;5060050;28;19958;-67
2022/04/06 10:32:58;;;;;;;;;;;9.70;91.40;;;;;;5045321;28;20277;-67
2022/04/06 10:35:24;;;;;;;;;;;9.60;91.30;;;;;;5052148;28;19916;-67
2022/04/06 10:38:12;;;;;;;;;;;9.70;91.30;;;;;;5054455;28;19919;-67
2022/04/06 10:40:47;;;;;;;;;;;9.70;91.30;;;;;;5041886;28;19916;-67
2022/04/06 10:43:43;;;;;;;;;;;9.70;91.20;;;;;;5051401;28;20019;-67
2022/04/06 10:46:09;;;;;;;;;;;9.70;91.10;;;;;;5061173;28;19913;-67
2022/04/06 10:48:54;;;;;;;;;;;9.80;91.10;;;;;;5050654;28;19916;-67
2022/04/06 10:51:28;;;;;;;;;;;9.80;91.00;;;;;;5051642;28;19932;-67
2022/04/06 10:53:54;;;;;;;;;;;9.90;91.20;;;;;;5058270;28;19935;-67
2022/04/06 10:56:22;;;;;;;;;;;9.90;90.90;;;;;;5064826;28;19999;-67
2022/04/06 10:58:53;;;;;;;;;;;9.90;91.00;;;;;;5052042;28;19908;-67
2022/04/06 11:01:25;;;;;;;;;;;9.90;90.90;;;;;;5054295;28;20279;-67
2022/04/06 11:03:59;;;;;;;;;;;9.90;90.90;;;;;;5058694;28;20410;-67
2022/04/06 11:12:12;;;;;;;;;;;9.90;90.90;;;;;;5059827;28;20586;-67
2022/04/06 11:14:38;;;;;;;;;;;9.90;90.90;;;;;;5062342;28;19971;-67
2022/04/06 11:17:22;;;;;;;;;;;9.90;91.00;;;;;;5057526;28;20389;-67
2022/04/06 11:19:49;;;;;;;;;;;9.90;90.90;;;;;;5063878;28;20003;-67
2022/04/06 11:22:15;;;;;;;;;;;9.90;91.00;;;;;;5065158;28;19915;-67
2022/04/06 11:24:41;;;;;;;;;;;10.00;91.00;;;;;;5055422;28;19909;-67
2022/04/06 11:27:07;;;;;;;;;;;10.00;91.00;;;;;;5060008;28;19923;-67
2022/04/06 11:29:35;;;;;;;;;;;10.00;90.90;;;;;;5063316;28;20360;-67
2022/04/06 11:32:04;;;;;;;;;;;10.00;90.90;;;;;;5059410;28;19908;-67
2022/04/06 11:34:39;;;;;;;;;;;10.10;90.90;;;;;;5056133;28;20423;-67
2022/04/06 11:37:08;;;;;;;;;;;10.10;90.90;;;;;;5041115;28;19999;-67
2022/04/06 11:39:34;;;;;;;;;;;10.10;90.80;;;;;;5060427;28;19912;-67
2022/04/06 11:42:03;;;;;;;;;;;10.10;90.90;;;;;;5059583;28;19965;-67
2022/04/06 11:44:29;;;;;;;;;;;10.10;90.90;;;;;;5058364;28;19927;-67
2022/04/06 11:46:55;;;;;;;;;;;10.10;90.90;;;;;;5061892;28;19908;-67
2022/04/06 11:49:21;;;;;;;;;;;10.10;90.90;;;;;;5048729;28;19947;-67
2022/04/06 11:51:47;;;;;;;;;;;10.10;91.00;;;;;;5053355;28;19913;-67
2022/04/06 11:54:13;;;;;;;;;;;10.10;91.00;;;;;;5059359;28;19935;-67
2022/04/06 11:56:39;;;;;;;;;;;10.10;91.00;;;;;;5064070;28;20353;-67
2022/04/06 11:59:08;;;;;;;;;;;10.10;91.00;;;;;;5055408;28;19908;-67
2022/04/06 12:01:42;;;;;;;;;;;10.10;91.10;;;;;;5060482;28;19912;-67
2022/04/06 12:04:18;;;;;;;;;;;10.20;91.10;;;;;;5061509;28;20604;-67
2022/04/06 12:06:44;;;;;;;;;;;10.10;91.10;;;;;;5060498;28;19909;-67
2022/04/06 12:09:10;;;;;;;;;;;10.10;91.30;;;;;;5056663;28;20445;-67
2022/04/06 12:11:36;;;;;;;;;;;10.10;91.20;;;;;;5057924;28;19908;-67
2022/04/06 12:14:02;;;;;;;;;;;10.10;91.30;;;;;;5057774;28;20772;-67
2022/04/06 12:16:27;;;;;;;;;;;10.10;91.30;;;;;;5050603;28;19913;-67
2022/04/06 12:18:53;;;;;;;;;;;10.10;91.30;;;;;;5059073;28;19920;-67
2022/04/06 12:21:23;;;;;;;;;;;10.10;91.30;;;;;;5047789;28;19944;-67
2022/04/06 12:23:49;;;;;;;;;;;10.10;91.40;;;;;;5059798;28;19913;-67
2022/04/06 12:26:15;;;;;;;;;;;10.10;91.40;;;;;;5056020;28;19919;-67
2022/04/06 12:28:43;;;;;;;;;;;10.10;91.40;;;;;;5058032;28;19916;-67
2022/04/06 12:31:10;;;;;;;;;;;10.10;91.40;;;;;;5062977;28;20014;-67
2022/04/06 12:33:37;;;;;;;;;;;10.10;91.50;;;;;;5049540;28;19941;-67
2022/04/06 12:36:30;;;;;;;;;;;10.10;91.40;;;;;;5055169;28;19917;-67
2022/04/06 12:39:14;;;;;;;;;;;10.20;91.40;;;;;;5045778;28;20022;-67
2022/04/06 12:41:52;;;;;;;;;;;10.20;91.40;;;;;;5041588;28;20011;-67
2022/04/06 12:44:19;;;;;;;;;;;10.20;91.40;;;;;;5045961;28;19923;-67
2022/04/06 12:46:45;;;;;;;;;;;10.20;91.40;;;;;;5061405;28;19920;-67
2022/04/06 12:49:16;;;;;;;;;;;10.20;91.40;;;;;;5055632;28;19917;-67
2022/04/06 12:51:42;;;;;;;;;;;10.30;91.30;;;;;;5057202;28;19921;-67
2022/04/06 12:54:08;;;;;;;;;;;10.20;91.30;;;;;;5057897;28;19909;-67
2022/04/06 12:56:33;;;;;;;;;;;10.30;91.40;;;;;;5059823;28;19996;-67
2022/04/06 12:59:09;;;;;;;;;;;10.30;91.30;;;;;;5055588;28;19932;-67
2022/04/06 13:01:45;;;;;;;;;;;10.30;91.30;;;;;;5043615;28;20250;-67
2022/04/06 13:04:10;;;;;;;;;;;10.30;91.30;;;;;;5059853;28;19934;-67
2022/04/06 13:06:36;;;;;;;;;;;10.30;91.40;;;;;;5053067;28;19912;-67
2022/04/06 13:09:01;;;;;;;;;;;10.30;91.30;;;;;;5046718;28;19995;-67
2022/04/06 13:11:27;;;;;;;;;;;10.30;91.30;;;;;;5059214;28;19913;-67
2022/04/06 13:13:52;;;;;;;;;;;10.30;91.30;;;;;;5054292;28;19964;-67
2022/04/06 13:16:19;;;;;;;;;;;10.40;91.30;;;;;;5052932;28;19913;-67
2022/04/06 13:18:45;;;;;;;;;;;10.30;91.30;;;;;;5056365;28;19924;-67
2022/04/06 13:21:11;;;;;;;;;;;10.30;91.30;;;;;;5059983;28;19966;-67
2022/04/06 13:23:37;;;;;;;;;;;10.40;91.30;;;;;;5052988;28;19947;-67
2022/04/06 13:26:03;;;;;;;;;;;10.30;91.30;;;;;;5050728;28;19924;-67
2022/04/06 13:28:28;;;;;;;;;;;10.30;91.30;;;;;;5057958;28;19917;-67
2022/04/06 13:30:54;;;;;;;;;;;10.30;91.40;;;;;;5055667;28;20537;-67
2022/04/06 13:33:21;;;;;;;;;;;10.30;91.30;;;;;;5049051;28;19908;-67
2022/04/06 13:35:49;;;;;;;;;;;10.30;91.40;;;;;;5044780;28;20264;-67
2022/04/06 13:38:14;;;;;;;;;;;10.30;91.40;;;;;;5057812;28;19940;-67
2022/04/06 13:40:40;;;;;;;;;;;10.30;91.40;;;;;;5052555;28;19944;-67
2022/04/06 13:43:05;;;;;;;;;;;10.30;91.40;;;;;;5050532;28;19909;-67
2022/04/06 13:45:31;;;;;;;;;;;10.30;91.30;;;;;;5054810;28;19913;-67
2022/04/06 13:47:56;;;;;;;;;;;10.30;91.40;;;;;;5054060;28;19975;-67
2022/04/06 13:50:22;;;;;;;;;;;10.40;91.40;;;;;;5050850;28;19924;-67
2022/04/06 13:52:48;;;;;;;;;;;10.40;91.40;;;;;;5053330;28;20053;-67
2022/04/06 13:55:21;;;;;;;;;;;10.40;91.30;;;;;;5059268;28;20365;-67
2022/04/06 13:57:47;;;;;;;;;;;10.40;91.30;;;;;;5047355;28;20138;-67
2022/04/06 14:00:14;;;;;;;;;;;10.40;91.30;;;;;;5052780;28;20003;-67
2022/04/06 14:02:39;;;;;;;;;;;10.40;91.30;;;;;;5057618;28;20011;-67
2022/04/06 14:05:05;;;;;;;;;;;10.40;91.20;;;;;;5061305;28;20046;-67
2022/04/06 14:07:31;;;;;;;;;;;10.40;91.20;;;;;;5051403;28;19909;-67
2022/04/06 14:09:57;;;;;;;;;;;10.50;91.20;;;;;;5058077;28;19912;-67
2022/04/06 14:12:22;;;;;;;;;;;10.50;91.10;;;;;;5053621;28;19916;-67
2022/04/06 14:14:48;;;;;;;;;;;10.50;91.10;;;;;;5049265;28;19993;-67
2022/04/06 14:17:13;;;;;;;;;;;10.50;91.10;;;;;;5048537;28;19936;-67
2022/04/06 14:19:39;;;;;;;;;;;10.50;91.00;;;;;;5043526;28;19970;-67
2022/04/06 14:22:05;;;;;;;;;;;10.50;91.10;;;;;;5052804;28;19912;-67
2022/04/06 14:24:30;;;;;;;;;;;10.50;91.10;;;;;;5050647;28;19913;-67
2022/04/06 14:26:56;;;;;;;;;;;10.50;91.10;;;;;;5050431;28;19909;-67
2022/04/06 14:29:21;;;;;;;;;;;10.50;91.10;;;;;;5072277;28;19913;-67
2022/04/06 14:31:47;;;;;;;;;;;10.50;91.10;;;;;;5037065;28;19951;-67
2022/04/06 14:34:13;;;;;;;;;;;10.60;91.10;;;;;;5050123;28;19994;-67
2022/04/06 14:36:40;;;;;;;;;;;10.60;91.10;;;;;;5054000;28;19912;-67